Notl Queenston

*Note: All times are displayed in the local standard time of the station location.
**Rain - Equipment is designed to accurately record liquid precipitation; under conditions when precipitation is not in liquid form, the data displayed may not properly reflect rainfall values.

Date Max Temp
(°C)
Min Temp
(°C)
Avg Temp
(°C)
Rain (mm) Avg RH (%) Solar Rad (kJ/m2)
Fri, Feb 15, 2019 6.3 -4.1 1.9 1.6 71.9 3720.6
Thu, Feb 14, 2019 6.6 -4.4 0.1 0.6 66.8 6344.6
Wed, Feb 13, 2019 1.3 -4.4 -2.3 0.4 77.3 4322.5
Tue, Feb 12, 2019 2.8 -5.3 -2.0 8.2 89.2 1971.0
Mon, Feb 11, 2019 -2.1 -4.9 -3.4 0.0 73.6 2456.1
Sun, Feb 10, 2019 -2.8 -8.3 -5.5 0.0 69.2 5488.3
Sat, Feb 09, 2019 -4.1 -9.5 -6.8 0.0 66.0 4209.6
DateTime Avg Temp (°C) Rain (mm) RH (%) Solar Rad (kJ/m2)
Sat, Feb 16, 2019 16:00 -2.2 0.0 61.7 1048.4
Sat, Feb 16, 2019 15:00 -2.5 0.0 64.3 1241.1
Sat, Feb 16, 2019 14:00 -2.6 0.0 64.4 1588.6
Sat, Feb 16, 2019 13:00 -3.4 0.0 66.6 945.2
Sat, Feb 16, 2019 12:00 -3.7 0.0 67.1 695.7
Sat, Feb 16, 2019 11:00 -3.5 0.0 66.1 1266.7
Sat, Feb 16, 2019 10:00 -3.6 0.0 64.9 810.8
Sat, Feb 16, 2019 09:00 -3.8 0.0 66.0 285.5
Sat, Feb 16, 2019 08:00 -4.3 0.0 67.9 54.0
Sat, Feb 16, 2019 07:00 -3.9 0.0 67.8 2.1
Sat, Feb 16, 2019 06:00 -3.1 0.0 69.6 3.0
Sat, Feb 16, 2019 05:00 -3.2 0.0 78.2 2.7
Sat, Feb 16, 2019 04:00 -3.3 0.0 78.0 2.7
Sat, Feb 16, 2019 03:00 -3.4 0.0 76.6 2.7
Sat, Feb 16, 2019 02:00 -3.4 0.0 73.2 2.4
Sat, Feb 16, 2019 01:00 -3.6 0.0 71.6 2.7
Sat, Feb 16, 2019 00:00 -3.9 0.0 70.7 2.4
Fri, Feb 15, 2019 23:00 -3.8 0.0 69.3 2.7
Fri, Feb 15, 2019 22:00 -3.4 0.0 67.9 2.7
Fri, Feb 15, 2019 21:00 -2.7 0.0 66.8 2.7
Fri, Feb 15, 2019 20:00 -2.1 0.0 68.3 2.1
Fri, Feb 15, 2019 19:00 -1.5 0.0 66.8 2.4
Fri, Feb 15, 2019 18:00 -0.8 0.0 65.9 18.7
Fri, Feb 15, 2019 17:00 -0.1 0.0 63.6 135.4
Fri, Feb 15, 2019 16:00 0.5 0.0 67.7 511.8
Fri, Feb 15, 2019 15:00 1.0 0.0 64.5 589.3
Fri, Feb 15, 2019 14:00 2.0 0.0 65.5 505.9
Fri, Feb 15, 2019 13:00 2.4 0.0 66.1 365.6
Fri, Feb 15, 2019 12:00 3.1 0.0 72.1 245.4
Fri, Feb 15, 2019 11:00 4.7 0.0 76.2 854.8
Fri, Feb 15, 2019 10:00 4.3 0.0 85.2 401.0
Fri, Feb 15, 2019 09:00 4.6 0.0 89.5 45.9
Fri, Feb 15, 2019 08:00 4.8 0.2 89.6 13.2
Fri, Feb 15, 2019 07:00 4.5 0.0 93.7 3.0
Fri, Feb 15, 2019 06:00 4.4 0.8 91.4 2.7
Fri, Feb 15, 2019 05:00 4.3 0.4 89.5 2.4
Fri, Feb 15, 2019 04:00 5.8 0.2 67.4 2.7
Fri, Feb 15, 2019 03:00 5.8 0.0 61.0 2.7
Fri, Feb 15, 2019 02:00 5.6 0.0 51.9 2.7
Fri, Feb 15, 2019 01:00 5.5 0.0 54.7 2.4
Fri, Feb 15, 2019 00:00 6.3 0.0 54.9 3.0
Thu, Feb 14, 2019 23:00 5.3 0.0 52.7 3.0
Thu, Feb 14, 2019 22:00 4.7 0.2 54.0 3.0
Thu, Feb 14, 2019 21:00 2.1 0.0 70.8 2.4
Thu, Feb 14, 2019 20:00 0.6 0.0 76.4 3.0
Thu, Feb 14, 2019 19:00 1.2 0.0 67.4 2.1
Thu, Feb 14, 2019 18:00 2.0 0.0 61.3 53.0
Thu, Feb 14, 2019 17:00 2.9 0.0 55.3 194.5


asterix Register now to access more data! asterix